Time,TemperatureF,DewpointF,PressureIn,WindDirection,WindDirectionDegrees,WindSpeedMPH,WindSpeedGustMPH,Humidity,HourlyPrecipIn,Conditions,Clouds,dailyrainin,SoftwareType,DateUTC
2013-04-11 00:04:00,55.2,47.5,29.32,NE,52,3.6,5.8,75,0.04,,---,0.00,VWS V13.01,2013-04-11 04:04:00,
2013-04-11 00:09:00,54.9,47.1,29.32,NE,35,3.1,7.6,75,0.04,,---,0.00,VWS V13.01,2013-04-11 04:09:00,
2013-04-11 00:14:00,54.9,47.8,29.32,NNE,29,3.1,6.3,77,0.04,,---,0.00,VWS V13.01,2013-04-11 04:14:00,
2013-04-11 00:19:00,54.7,48.0,29.32,NE,42,4.0,6.7,78,0.04,,---,0.00,VWS V13.01,2013-04-11 04:19:00,
2013-04-11 00:24:00,54.7,48.6,29.32,NE,37,4.0,8.1,80,0.00,,---,0.00,VWS V13.01,2013-04-11 04:24:00,
2013-04-11 00:29:00,54.9,49.2,29.32,NE,39,5.4,6.3,81,0.00,,---,0.00,VWS V13.01,2013-04-11 04:29:00,
2013-04-11 00:34:00,54.9,49.5,29.29,NNE,29,3.1,6.3,82,0.00,,---,0.00,VWS V13.01,2013-04-11 04:34:00,
2013-04-11 00:44:00,55.2,49.8,29.29,NNE,29,2.7,2.7,82,0.00,,---,0.00,VWS V13.01,2013-04-11 04:44:00,
2013-04-11 00:49:00,55.4,50.0,29.32,NNE,29,0.0,2.7,82,0.00,,---,0.00,VWS V13.01,2013-04-11 04:49:00,
2013-04-11 00:54:00,55.4,50.0,29.32,NNE,29,0.0,0.0,82,0.00,,---,0.00,VWS V13.01,2013-04-11 04:54:00,
2013-04-11 01:04:00,55.2,49.5,29.29,NNE,29,0.0,0.0,81,0.00,,---,0.00,VWS V13.01,2013-04-11 05:04:00,
2013-04-11 01:09:00,55.4,49.7,29.29,NNE,29,0.0,0.0,81,0.00,,---,0.00,VWS V13.01,2013-04-11 05:09:00,
2013-04-11 01:14:00,55.6,49.8,29.29,NNE,29,0.0,0.0,81,0.00,,---,0.00,VWS V13.01,2013-04-11 05:14:00,
2013-04-11 01:19:00,55.8,50.0,29.32,NNE,29,0.0,0.0,81,0.00,,---,0.00,VWS V13.01,2013-04-11 05:19:00,
2013-04-11 01:24:00,55.9,50.2,29.32,NNE,29,0.0,0.0,81,0.00,,---,0.00,VWS V13.01,2013-04-11 05:24:00,
2013-04-11 01:29:00,55.9,50.2,29.32,NNE,29,0.0,0.0,81,0.00,,---,0.00,VWS V13.01,2013-04-11 05:29:00,
2013-04-11 02:24:00,55.9,50.9,29.29,NNE,29,0.0,3.1,83,0.00,,---,0.00,VWS V13.01,2013-04-11 06:24:00,
2013-04-11 02:29:00,55.8,50.7,29.29,NNE,29,0.0,3.1,83,0.00,,---,0.00,VWS V13.01,2013-04-11 06:29:00,
2013-04-11 02:34:00,55.8,51.0,29.29,NNE,29,0.0,0.0,84,0.00,,---,0.00,VWS V13.01,2013-04-11 06:34:00,
2013-04-11 02:39:00,55.8,51.0,29.29,NNE,29,0.0,0.0,84,0.00,,---,0.00,VWS V13.01,2013-04-11 06:39:00,
2013-04-11 02:49:00,55.9,51.2,29.29,NNE,29,0.0,0.0,84,0.00,,---,0.00,VWS V13.01,2013-04-11 06:49:00,
2013-04-11 02:54:00,55.9,51.2,29.29,NNE,29,0.0,0.0,84,0.00,,---,0.00,VWS V13.01,2013-04-11 06:54:00,
2013-04-11 02:59:00,55.9,51.2,29.29,NNE,29,0.0,0.0,84,0.00,,---,0.00,VWS V13.01,2013-04-11 06:59:00,
2013-04-11 03:04:00,56.1,51.4,29.29,NNE,29,0.0,0.0,84,0.00,,---,0.00,VWS V13.01,2013-04-11 07:04:00,
2013-04-11 03:09:00,56.1,51.4,29.29,NNE,29,0.0,0.0,84,0.00,,---,0.00,VWS V13.01,2013-04-11 07:09:00,
2013-04-11 03:14:00,56.1,51.4,29.29,NNE,29,0.0,0.0,84,0.00,,---,0.00,VWS V13.01,2013-04-11 07:14:00,
2013-04-11 03:19:00,56.1,51.4,29.29,NNE,29,2.7,2.7,84,0.00,,---,0.00,VWS V13.01,2013-04-11 07:19:00,
2013-04-11 03:24:00,55.9,51.2,29.29,NNE,29,2.7,3.6,84,0.00,,---,0.00,VWS V13.01,2013-04-11 07:24:00,
2013-04-11 03:29:00,55.9,51.2,29.29,SW,229,2.7,8.1,84,0.00,,---,0.00,VWS V13.01,2013-04-11 07:29:00,
2013-04-11 03:34:00,55.9,51.2,29.29,SSW,212,2.7,7.6,84,0.00,,---,0.00,VWS V13.01,2013-04-11 07:34:00,
2013-04-11 03:39:00,55.9,51.2,29.29,West,281,3.6,8.1,84,0.00,,---,0.00,VWS V13.01,2013-04-11 07:39:00,
2013-04-11 03:44:00,55.9,51.2,29.29,South,180,4.0,6.3,84,0.00,,---,0.00,VWS V13.01,2013-04-11 07:44:00,
2013-04-11 03:49:00,55.9,51.2,29.32,SSW,206,7.6,7.6,84,0.00,,---,0.00,VWS V13.01,2013-04-11 07:49:00,
2013-04-11 03:54:00,55.8,51.0,29.32,SSE,166,5.4,8.7,84,0.00,,---,0.00,VWS V13.01,2013-04-11 07:54:00,
2013-04-11 03:59:00,55.6,50.8,29.32,SSW,198,0.0,8.7,84,0.00,,---,0.00,VWS V13.01,2013-04-11 07:59:00,
2013-04-11 04:04:00,55.6,50.8,29.29,South,175,6.3,6.3,84,0.00,,---,0.00,VWS V13.01,2013-04-11 08:04:00,
2013-04-11 04:09:00,55.6,50.5,29.29,SSW,205,4.9,6.7,83,0.00,,---,0.00,VWS V13.01,2013-04-11 08:09:00,
2013-04-11 04:14:00,55.2,49.8,29.29,SW,219,3.1,7.6,82,0.00,,---,0.00,VWS V13.01,2013-04-11 08:14:00,
2013-04-11 04:19:00,55.2,49.5,29.29,West,268,5.4,7.6,81,0.00,,---,0.00,VWS V13.01,2013-04-11 08:19:00,
2013-04-11 04:24:00,55.2,49.2,29.29,SSE,167,5.4,10.1,80,0.00,,---,0.00,VWS V13.01,2013-04-11 08:24:00,
2013-04-11 04:29:00,55.0,49.0,29.29,SSW,206,4.0,6.3,80,0.00,,---,0.00,VWS V13.01,2013-04-11 08:29:00,
2013-04-11 04:34:00,55.0,49.0,29.29,South,182,5.4,6.3,80,0.00,,---,0.00,VWS V13.01,2013-04-11 08:34:00,
2013-04-11 04:39:00,55.0,49.0,29.29,SW,236,2.2,5.8,80,0.00,,---,0.00,VWS V13.01,2013-04-11 08:39:00,
2013-04-11 04:44:00,54.9,48.5,29.29,South,186,3.6,8.3,79,0.00,,---,0.00,VWS V13.01,2013-04-11 08:44:00,
2013-04-11 04:49:00,54.9,48.5,29.32,SSW,208,5.4,8.3,79,0.00,,---,0.00,VWS V13.01,2013-04-11 08:49:00,
2013-04-11 04:54:00,54.9,48.5,29.32,SSW,210,4.0,8.3,79,0.00,,---,0.00,VWS V13.01,2013-04-11 08:54:00,
2013-04-11 04:59:00,54.7,48.3,29.32,SSW,211,5.4,5.8,79,0.00,,---,0.00,VWS V13.01,2013-04-11 08:59:00,
2013-04-11 05:04:00,54.7,47.6,29.32,South,179,3.6,6.3,77,0.00,,---,0.00,VWS V13.01,2013-04-11 09:04:00,
2013-04-11 05:09:00,54.7,47.3,29.32,South,190,2.7,8.1,76,0.00,,---,0.00,VWS V13.01,2013-04-11 09:09:00,
2013-04-11 05:14:00,54.5,46.4,29.32,WSW,254,0.0,5.8,74,0.00,,---,0.00,VWS V13.01,2013-04-11 09:14:00,
2013-04-11 05:19:00,54.5,46.4,29.32,SSW,198,4.0,5.4,74,0.00,,---,0.00,VWS V13.01,2013-04-11 09:19:00,
2013-04-11 05:24:00,54.5,46.4,29.32,SSW,195,4.9,6.3,74,0.00,,---,0.00,VWS V13.01,2013-04-11 09:24:00,
2013-04-11 05:34:00,54.3,45.5,29.32,South,188,8.3,8.3,72,0.00,,---,0.00,VWS V13.01,2013-04-11 09:34:00,
2013-04-11 05:39:00,54.1,45.0,29.32,SSE,155,4.0,8.3,71,0.00,,---,0.00,VWS V13.01,2013-04-11 09:39:00,
2013-04-11 05:44:00,54.0,44.0,29.32,SSW,208,4.0,8.3,69,0.00,,---,0.00,VWS V13.01,2013-04-11 09:44:00,
2013-04-11 05:49:00,54.0,44.0,29.32,SW,216,3.6,5.4,69,0.00,,---,0.00,VWS V13.01,2013-04-11 09:49:00,
2013-04-11 05:54:00,53.8,43.9,29.32,SW,218,5.4,5.8,69,0.00,,---,0.00,VWS V13.01,2013-04-11 09:54:00,
2013-04-11 05:59:00,53.6,43.3,29.32,SW,227,3.1,5.4,68,0.00,,---,0.00,VWS V13.01,2013-04-11 09:59:00,
2013-04-11 06:04:00,52.9,39.8,29.35,NW,318,3.6,10.1,61,0.00,,---,0.00,VWS V13.01,2013-04-11 10:04:00,
2013-04-11 06:14:00,52.0,38.1,29.35,WNW,286,3.1,7.2,59,0.00,,---,0.00,VWS V13.01,2013-04-11 10:14:00,
2013-04-11 06:19:00,52.2,39.1,29.35,SW,216,2.7,7.6,61,0.00,,---,0.00,VWS V13.01,2013-04-11 10:19:00,
2013-04-11 06:24:00,52.2,38.7,29.35,SSE,168,2.7,7.6,60,0.00,,---,0.00,VWS V13.01,2013-04-11 10:24:00,
2013-04-11 06:29:00,52.2,39.1,29.35,SSW,199,3.1,4.0,61,0.00,,---,0.00,VWS V13.01,2013-04-11 10:29:00,
2013-04-11 06:34:00,52.0,38.5,29.38,SW,224,2.7,5.8,60,0.00,,---,0.00,VWS V13.01,2013-04-11 10:34:00,
2013-04-11 06:39:00,52.0,38.1,29.38,WSW,247,0.0,4.5,59,0.00,,---,0.00,VWS V13.01,2013-04-11 10:39:00,
2013-04-11 06:44:00,52.0,38.1,29.38,West,281,2.7,7.2,59,0.00,,---,0.00,VWS V13.01,2013-04-11 10:44:00,
2013-04-11 06:49:00,51.8,37.5,29.38,South,169,3.6,5.8,58,0.00,,---,0.00,VWS V13.01,2013-04-11 10:49:00,
2013-04-11 06:54:00,51.4,37.2,29.38,SSW,200,3.1,6.3,58,0.00,,---,0.00,VWS V13.01,2013-04-11 10:54:00,
2013-04-11 06:59:00,51.4,37.6,29.38,West,277,4.0,7.6,59,0.00,,---,0.00,VWS V13.01,2013-04-11 10:59:00,
2013-04-11 07:09:00,51.3,37.9,29.38,West,281,3.1,4.0,60,0.00,,---,0.00,VWS V13.01,2013-04-11 11:09:00,
2013-04-11 07:14:00,51.3,37.9,29.38,South,184,0.0,4.0,60,0.00,,---,0.00,VWS V13.01,2013-04-11 11:14:00,
2013-04-11 07:19:00,51.1,36.8,29.38,SW,225,2.7,4.9,58,0.00,,---,0.00,VWS V13.01,2013-04-11 11:19:00,
2013-04-11 07:24:00,51.1,37.3,29.38,South,190,4.0,7.6,59,0.00,,---,0.00,VWS V13.01,2013-04-11 11:24:00,
2013-04-11 07:29:00,50.5,37.2,29.38,NW,305,2.2,4.0,60,0.00,,---,0.00,VWS V13.01,2013-04-11 11:29:00,
2013-04-11 07:34:00,50.7,38.2,29.38,WNW,303,0.0,4.0,62,0.00,,---,0.00,VWS V13.01,2013-04-11 11:34:00,
2013-04-11 07:39:00,50.9,38.8,29.38,SSW,196,4.0,5.8,63,0.00,,---,0.00,VWS V13.01,2013-04-11 11:39:00,
2013-04-11 07:44:00,50.7,37.8,29.38,SW,235,0.0,5.4,61,0.00,,---,0.00,VWS V13.01,2013-04-11 11:44:00,
2013-04-11 07:49:00,50.9,38.0,29.38,WSW,237,5.4,5.4,61,0.00,,---,0.00,VWS V13.01,2013-04-11 11:49:00,
2013-04-11 07:54:00,50.7,38.2,29.38,WSW,243,3.6,6.3,62,0.00,,---,0.00,VWS V13.01,2013-04-11 11:54:00,
2013-04-11 07:59:00,50.7,38.6,29.38,NW,307,5.4,5.8,63,0.00,,---,0.00,VWS V13.01,2013-04-11 11:59:00,
2013-04-11 08:04:00,50.9,39.6,29.38,SW,229,0.0,5.8,65,0.00,,---,0.00,VWS V13.01,2013-04-11 12:04:00,
2013-04-11 08:14:00,51.1,39.3,29.38,SSW,196,2.7,6.3,64,0.00,,---,0.00,VWS V13.01,2013-04-11 12:14:00,
2013-04-11 08:19:00,51.3,39.9,29.41,South,187,4.0,6.3,65,0.00,,---,0.00,VWS V13.01,2013-04-11 12:19:00,
2013-04-11 08:24:00,51.4,38.9,29.41,WSW,252,3.1,7.6,62,0.00,,---,0.00,VWS V13.01,2013-04-11 12:24:00,
2013-04-11 08:29:00,51.4,38.0,29.41,SSW,209,5.8,5.8,60,0.00,,---,0.00,VWS V13.01,2013-04-11 12:29:00,
2013-04-11 08:34:00,51.4,37.2,29.41,SW,225,2.7,5.8,58,0.00,,---,0.00,VWS V13.01,2013-04-11 12:34:00,
2013-04-11 08:39:00,51.8,37.9,29.41,SSW,199,0.0,3.1,59,0.00,,---,0.00,VWS V13.01,2013-04-11 12:39:00,
2013-04-11 08:44:00,52.0,36.3,29.41,SSW,203,2.7,7.6,55,0.00,,---,0.00,VWS V13.01,2013-04-11 12:44:00,
2013-04-11 08:49:00,51.4,35.8,29.41,SW,224,3.1,7.6,55,0.00,,---,0.00,VWS V13.01,2013-04-11 12:49:00,
2013-04-11 08:54:00,51.6,36.9,29.41,WSW,248,5.4,5.4,57,0.00,,---,0.00,VWS V13.01,2013-04-11 12:54:00,
2013-04-11 08:59:00,51.8,36.6,29.41,North,349,3.1,5.8,56,0.00,,---,0.00,VWS V13.01,2013-04-11 12:59:00,
2013-04-11 09:04:00,51.6,36.5,29.41,WNW,282,5.8,6.3,56,0.00,,---,0.00,VWS V13.01,2013-04-11 13:04:00,
2013-04-11 09:09:00,51.6,36.0,29.41,SSW,211,2.2,5.8,55,0.00,,---,0.00,VWS V13.01,2013-04-11 13:09:00,
2013-04-11 09:14:00,52.2,37.4,29.41,SW,233,5.4,5.4,57,0.00,,---,0.00,VWS V13.01,2013-04-11 13:14:00,
2013-04-11 09:19:00,52.5,35.9,29.41,WSW,258,3.6,5.8,53,0.00,,---,0.00,VWS V13.01,2013-04-11 13:19:00,
2013-04-11 09:24:00,53.1,35.4,29.41,SSW,208,2.7,4.0,51,0.00,,---,0.00,VWS V13.01,2013-04-11 13:24:00,
2013-04-11 09:29:00,52.9,34.8,29.41,South,170,0.0,5.8,50,0.00,,---,0.00,VWS V13.01,2013-04-11 13:29:00,
2013-04-11 09:34:00,53.4,35.3,29.41,WSW,256,2.7,3.6,50,0.00,,---,0.00,VWS V13.01,2013-04-11 13:34:00,
2013-04-11 09:39:00,54.0,34.7,29.41,NW,315,0.0,4.0,48,0.00,,---,0.00,VWS V13.01,2013-04-11 13:39:00,
2013-04-11 09:44:00,54.3,34.0,29.41,South,174,4.0,5.8,46,0.00,,---,0.00,VWS V13.01,2013-04-11 13:44:00,
2013-04-11 09:49:00,54.9,34.5,29.41,South,173,0.0,4.0,46,0.00,,---,0.00,VWS V13.01,2013-04-11 13:49:00,
2013-04-11 09:54:00,55.0,33.0,29.41,SSW,206,5.4,6.7,43,0.00,,---,0.00,VWS V13.01,2013-04-11 13:54:00,
2013-04-11 09:59:00,55.8,32.4,29.41,SW,232,4.0,6.3,41,0.00,,---,0.00,VWS V13.01,2013-04-11 13:59:00,
2013-04-11 10:04:00,56.1,32.8,29.41,WSW,252,2.7,6.3,41,0.00,,---,0.00,VWS V13.01,2013-04-11 14:04:00,
2013-04-11 10:09:00,55.9,32.6,29.41,South,190,3.1,8.3,41,0.00,,---,0.00,VWS V13.01,2013-04-11 14:09:00,
2013-04-11 10:14:00,55.8,31.8,29.41,South,183,5.4,6.3,40,0.00,,---,0.00,VWS V13.01,2013-04-11 14:14:00,
2013-04-11 10:19:00,55.4,32.1,29.41,SSW,207,4.0,6.3,41,0.00,,---,0.00,VWS V13.01,2013-04-11 14:19:00,
2013-04-11 10:24:00,55.8,33.0,29.41,South,170,4.0,5.4,42,0.00,,---,0.00,VWS V13.01,2013-04-11 14:24:00,
2013-04-11 10:29:00,56.3,32.3,29.41,SW,219,5.4,5.8,40,0.00,,---,0.00,VWS V13.01,2013-04-11 14:29:00,
2013-04-11 10:34:00,56.7,32.6,29.41,WNW,302,3.6,6.3,40,0.00,,---,0.00,VWS V13.01,2013-04-11 14:34:00,
2013-04-11 10:39:00,56.3,31.7,29.41,North,357,3.1,7.2,39,0.00,,---,0.00,VWS V13.01,2013-04-11 14:39:00,
2013-04-11 10:44:00,55.6,30.4,29.41,SSW,206,6.3,8.7,38,0.00,,---,0.00,VWS V13.01,2013-04-11 14:44:00,
2013-04-11 10:49:00,56.8,31.5,29.41,SSE,153,2.7,8.1,38,0.00,,---,0.00,VWS V13.01,2013-04-11 14:49:00,
2013-04-11 10:54:00,57.0,30.4,29.41,SW,233,3.1,8.3,36,0.00,,---,0.00,VWS V13.01,2013-04-11 14:54:00,
2013-04-11 10:59:00,57.7,31.0,29.41,WNW,295,4.0,5.4,36,0.00,,---,0.00,VWS V13.01,2013-04-11 14:59:00,
2013-04-11 11:04:00,57.2,29.8,29.44,West,262,4.9,8.3,35,0.00,,---,0.00,VWS V13.01,2013-04-11 15:04:00,
2013-04-11 11:09:00,56.1,29.5,29.44,West,269,5.8,9.2,36,0.00,,---,0.00,VWS V13.01,2013-04-11 15:09:00,
2013-04-11 11:14:00,57.0,29.7,29.44,West,280,2.7,6.3,35,0.00,,---,0.00,VWS V13.01,2013-04-11 15:14:00,
2013-04-11 11:19:00,56.5,29.9,29.41,WNW,293,5.4,8.3,36,0.00,,---,0.00,VWS V13.01,2013-04-11 15:19:00,
2013-04-11 11:24:00,57.2,29.8,29.41,WNW,290,3.6,6.3,35,0.00,,---,0.00,VWS V13.01,2013-04-11 15:24:00,
2013-04-11 11:29:00,57.7,29.6,29.41,NNW,327,3.1,5.8,34,0.00,,---,0.00,VWS V13.01,2013-04-11 15:29:00,
2013-04-11 11:34:00,58.1,29.9,29.44,NW,326,2.2,7.2,34,0.00,,---,0.00,VWS V13.01,2013-04-11 15:34:00,
2013-04-11 11:39:00,58.5,30.2,29.44,NW,320,6.3,7.6,34,0.00,,---,0.00,VWS V13.01,2013-04-11 15:39:00,
2013-04-11 11:44:00,57.9,30.5,29.44,North,353,5.8,9.2,35,0.00,,---,0.00,VWS V13.01,2013-04-11 15:44:00,
2013-04-11 11:49:00,57.7,29.6,29.44,WNW,297,5.4,10.5,34,0.00,,---,0.00,VWS V13.01,2013-04-11 15:49:00,
2013-04-11 11:59:00,58.6,28.9,29.44,WNW,297,3.6,8.1,32,0.00,,---,0.00,VWS V13.01,2013-04-11 15:59:00,
2013-04-11 12:04:00,57.9,29.0,29.44,WNW,291,8.7,8.7,33,0.00,,---,0.00,VWS V13.01,2013-04-11 16:04:00,
2013-04-11 12:09:00,58.3,29.3,29.44,NW,316,5.8,9.6,33,0.00,,---,0.00,VWS V13.01,2013-04-11 16:09:00,
2013-04-11 12:14:00,58.3,29.3,29.44,West,279,7.6,8.3,33,0.00,,---,0.00,VWS V13.01,2013-04-11 16:14:00,
2013-04-11 12:19:00,59.4,28.7,29.41,SSE,166,6.3,8.3,31,0.00,,---,0.00,VWS V13.01,2013-04-11 16:19:00,
2013-04-11 12:24:00,59.0,26.0,29.41,SW,215,7.6,11.0,28,0.00,,---,0.00,VWS V13.01,2013-04-11 16:24:00,
2013-04-11 12:29:00,58.8,26.6,29.41,NW,310,5.4,9.6,29,0.00,,---,0.00,VWS V13.01,2013-04-11 16:29:00,
2013-04-11 12:34:00,58.8,26.6,29.44,WNW,286,4.9,12.3,29,0.00,,---,0.00,VWS V13.01,2013-04-11 16:34:00,
2013-04-11 12:39:00,58.8,27.5,29.44,West,276,2.7,9.6,30,0.00,,---,0.00,VWS V13.01,2013-04-11 16:39:00,
2013-04-11 12:44:00,59.4,26.3,29.44,NW,309,6.3,6.3,28,0.00,,---,0.00,VWS V13.01,2013-04-11 16:44:00,
2013-04-11 12:49:00,58.3,27.0,29.44,NW,307,9.6,9.6,30,0.00,,---,0.00,VWS V13.01,2013-04-11 16:49:00,
2013-04-11 12:54:00,58.8,26.6,29.44,WNW,291,5.4,9.6,29,0.00,,---,0.00,VWS V13.01,2013-04-11 16:54:00,
2013-04-11 12:59:00,57.9,26.7,29.44,NW,306,5.4,10.1,30,0.00,,---,0.00,VWS V13.01,2013-04-11 16:59:00,
2013-04-11 13:04:00,58.8,28.3,29.44,South,182,4.0,8.3,31,0.00,,---,0.00,VWS V13.01,2013-04-11 17:04:00,
2013-04-11 13:09:00,59.4,26.3,29.44,West,266,4.9,8.1,28,0.00,,---,0.00,VWS V13.01,2013-04-11 17:09:00,
2013-04-11 13:14:00,58.8,25.8,29.44,West,266,5.4,10.1,28,0.00,,---,0.00,VWS V13.01,2013-04-11 17:14:00,
2013-04-11 13:19:00,59.5,26.4,29.44,SSW,197,8.1,8.1,28,0.00,,---,0.00,VWS V13.01,2013-04-11 17:19:00,
2013-04-11 13:24:00,59.9,25.9,29.44,WSW,241,5.4,8.1,27,0.00,,---,0.00,VWS V13.01,2013-04-11 17:24:00,
2013-04-11 13:29:00,58.8,25.8,29.44,WNW,298,3.6,8.3,28,0.00,,---,0.00,VWS V13.01,2013-04-11 17:29:00,
2013-04-11 13:34:00,59.4,26.3,29.47,South,170,3.1,8.3,28,0.00,,---,0.00,VWS V13.01,2013-04-11 17:34:00,
2013-04-11 13:39:00,59.7,25.7,29.47,West,259,5.4,8.7,27,0.00,,---,0.00,VWS V13.01,2013-04-11 17:39:00,
2013-04-11 13:44:00,59.7,25.7,29.47,WNW,286,3.6,8.1,27,0.00,,---,0.00,VWS V13.01,2013-04-11 17:44:00,
2013-04-11 13:49:00,58.5,26.3,29.44,NNW,327,4.5,8.1,29,0.00,,---,0.00,VWS V13.01,2013-04-11 17:49:00,
2013-04-11 13:54:00,58.1,26.0,29.44,West,270,5.8,11.0,29,0.00,,---,0.00,VWS V13.01,2013-04-11 17:54:00,
2013-04-11 13:59:00,57.7,25.7,29.44,WNW,290,7.6,10.1,29,0.00,,---,0.00,VWS V13.01,2013-04-11 17:59:00,
2013-04-11 14:04:00,58.3,26.2,29.44,NW,324,5.4,8.1,29,0.00,,---,0.00,VWS V13.01,2013-04-11 18:04:00,
2013-04-11 14:09:00,57.6,26.4,29.44,West,276,4.0,10.5,30,0.00,,---,0.00,VWS V13.01,2013-04-11 18:09:00,
2013-04-11 14:14:00,58.1,26.9,29.44,West,271,3.6,6.3,30,0.00,,---,0.00,VWS V13.01,2013-04-11 18:14:00,
2013-04-11 14:19:00,58.3,26.2,29.44,WNW,285,3.6,10.1,29,0.00,,---,0.00,VWS V13.01,2013-04-11 18:19:00,
2013-04-11 14:24:00,58.6,27.3,29.44,WSW,244,5.4,8.1,30,0.00,,---,0.00,VWS V13.01,2013-04-11 18:24:00,
2013-04-11 14:29:00,58.5,27.2,29.44,South,188,3.1,10.5,30,0.00,,---,0.00,VWS V13.01,2013-04-11 18:29:00,
2013-04-11 14:34:00,57.9,25.9,29.44,WNW,282,8.7,12.3,29,0.00,,---,0.00,VWS V13.01,2013-04-11 18:34:00,
2013-04-11 14:39:00,57.9,26.7,29.44,WSW,239,4.9,9.6,30,0.00,,---,0.00,VWS V13.01,2013-04-11 18:39:00,
2013-04-11 14:44:00,57.9,26.7,29.44,SSW,205,5.8,9.6,30,0.00,,---,0.00,VWS V13.01,2013-04-11 18:44:00,
2013-04-11 14:49:00,58.1,26.0,29.44,SSE,163,4.0,8.1,29,0.00,,---,0.00,VWS V13.01,2013-04-11 18:49:00,
2013-04-11 14:54:00,58.1,26.0,29.44,South,170,3.6,6.3,29,0.00,,---,0.00,VWS V13.01,2013-04-11 18:54:00,
2013-04-11 14:59:00,57.9,25.9,29.44,West,261,3.1,7.6,29,0.00,,---,0.00,VWS V13.01,2013-04-11 18:59:00,
2013-04-11 15:04:00,58.3,26.2,29.44,WNW,288,2.2,6.3,29,0.00,,---,0.00,VWS V13.01,2013-04-11 19:04:00,
2013-04-11 15:14:00,58.5,26.3,29.44,South,187,3.1,8.3,29,0.00,,---,0.00,VWS V13.01,2013-04-11 19:14:00,
2013-04-11 15:19:00,58.1,26.0,29.44,WSW,246,2.7,6.7,29,0.00,,---,0.00,VWS V13.01,2013-04-11 19:19:00,
2013-04-11 15:24:00,57.6,25.6,29.44,WNW,284,5.4,8.7,29,0.00,,---,0.00,VWS V13.01,2013-04-11 19:24:00,
2013-04-11 15:29:00,57.6,25.6,29.44,WNW,286,7.2,7.6,29,0.00,,---,0.00,VWS V13.01,2013-04-11 19:29:00,
2013-04-11 15:34:00,57.9,26.7,29.44,SSW,205,3.1,8.7,30,0.00,,---,0.00,VWS V13.01,2013-04-11 19:34:00,
2013-04-11 15:44:00,57.7,25.7,29.44,WNW,292,3.6,9.2,29,0.00,,---,0.00,VWS V13.01,2013-04-11 19:44:00,
2013-04-11 15:49:00,57.6,25.6,29.44,WSW,254,4.0,6.3,29,0.00,,---,0.00,VWS V13.01,2013-04-11 19:49:00,
2013-04-11 15:54:00,57.2,26.1,29.44,West,264,3.6,6.3,30,0.00,,---,0.00,VWS V13.01,2013-04-11 19:54:00,
2013-04-11 15:59:00,57.7,25.7,29.44,SW,229,2.7,8.3,29,0.00,,---,0.00,VWS V13.01,2013-04-11 19:59:00,
2013-04-11 16:04:00,57.6,25.6,29.44,SSW,195,3.1,8.1,29,0.00,,---,0.00,VWS V13.01,2013-04-11 20:04:00,
2013-04-11 16:09:00,57.4,26.2,29.44,South,177,5.4,8.1,30,0.00,,---,0.00,VWS V13.01,2013-04-11 20:09:00,
2013-04-11 16:14:00,57.7,26.5,29.44,South,183,0.0,7.6,30,0.00,,---,0.00,VWS V13.01,2013-04-11 20:14:00,
2013-04-11 16:19:00,57.6,26.4,29.44,West,273,3.1,6.3,30,0.00,,---,0.00,VWS V13.01,2013-04-11 20:19:00,
2013-04-11 16:29:00,56.8,25.8,29.44,West,272,5.8,6.3,30,0.00,,---,0.00,VWS V13.01,2013-04-11 20:29:00,
2013-04-11 16:34:00,56.3,26.8,29.44,WNW,286,4.0,8.7,32,0.00,,---,0.00,VWS V13.01,2013-04-11 20:34:00,
2013-04-11 16:44:00,55.9,26.5,29.44,West,275,4.9,8.3,32,0.00,,---,0.00,VWS V13.01,2013-04-11 20:44:00,
2013-04-11 16:54:00,55.8,27.1,29.44,WNW,289,4.9,8.1,33,0.00,,---,0.00,VWS V13.01,2013-04-11 20:54:00,
2013-04-11 16:59:00,55.6,27.0,29.44,NW,312,2.7,7.2,33,0.00,,---,0.00,VWS V13.01,2013-04-11 20:59:00,
2013-04-11 17:04:00,55.4,30.2,29.44,NNE,12,3.1,7.2,38,0.00,,---,0.00,VWS V13.01,2013-04-11 21:04:00,
2013-04-11 17:09:00,54.7,30.2,29.44,NE,36,4.0,6.3,39,0.00,,---,0.00,VWS V13.01,2013-04-11 21:09:00,
2013-04-11 17:14:00,54.5,30.7,29.44,NNE,27,3.1,8.1,40,0.00,,---,0.00,VWS V13.01,2013-04-11 21:14:00,
2013-04-11 17:19:00,53.8,30.0,29.44,NNE,17,3.6,11.0,40,0.00,,---,0.00,VWS V13.01,2013-04-11 21:19:00,
2013-04-11 17:29:00,53.1,30.6,29.44,NW,320,5.8,9.6,42,0.00,,---,0.00,VWS V13.01,2013-04-11 21:29:00,
2013-04-11 17:34:00,52.9,31.0,29.47,North,7,10.1,10.5,43,0.00,,---,0.00,VWS V13.01,2013-04-11 21:34:00,
2013-04-11 17:39:00,52.5,30.7,29.47,NNE,16,2.7,10.1,43,0.00,,---,0.00,VWS V13.01,2013-04-11 21:39:00,
2013-04-11 17:44:00,52.5,31.8,29.47,NNW,338,6.3,8.3,45,0.00,,---,0.00,VWS V13.01,2013-04-11 21:44:00,
2013-04-11 17:49:00,52.0,31.3,29.47,NE,41,4.0,10.5,45,0.00,,---,0.00,VWS V13.01,2013-04-11 21:49:00,
2013-04-11 17:54:00,51.6,31.5,29.47,North,357,4.0,8.7,46,0.00,,---,0.00,VWS V13.01,2013-04-11 21:54:00,
2013-04-11 17:59:00,51.3,30.7,29.47,NNE,30,5.8,7.6,45,0.00,,---,0.00,VWS V13.01,2013-04-11 21:59:00,
2013-04-11 18:04:00,51.4,31.4,29.47,NNE,17,4.0,7.2,46,0.00,,---,0.00,VWS V13.01,2013-04-11 22:04:00,
2013-04-11 18:09:00,51.4,31.4,29.47,NNE,25,2.2,5.4,46,0.00,,---,0.00,VWS V13.01,2013-04-11 22:09:00,
2013-04-11 18:14:00,51.4,31.4,29.47,NNE,31,3.6,4.0,46,0.00,,---,0.00,VWS V13.01,2013-04-11 22:14:00,
2013-04-11 18:19:00,51.4,29.7,29.47,NE,47,5.4,7.6,43,0.00,,---,0.00,VWS V13.01,2013-04-11 22:19:00,
2013-04-11 18:24:00,51.1,29.4,29.47,NNW,346,7.6,8.1,43,0.00,,---,0.00,VWS V13.01,2013-04-11 22:24:00,
2013-04-11 18:29:00,50.9,29.8,29.47,NNE,19,5.4,7.6,44,0.00,,---,0.00,VWS V13.01,2013-04-11 22:29:00,
2013-04-11 18:34:00,50.7,29.6,29.47,NNW,336,4.9,5.4,44,0.00,,---,0.00,VWS V13.01,2013-04-11 22:34:00,
2013-04-11 18:39:00,50.5,29.5,29.47,NE,43,3.6,5.4,44,0.00,,---,0.00,VWS V13.01,2013-04-11 22:39:00,
2013-04-11 18:44:00,50.2,28.6,29.47,NE,51,4.0,8.7,43,0.00,,---,0.00,VWS V13.01,2013-04-11 22:44:00,
2013-04-11 18:49:00,49.8,29.4,29.47,NNE,29,3.6,8.3,45,0.00,,---,0.00,VWS V13.01,2013-04-11 22:49:00,
2013-04-11 18:54:00,49.5,28.5,29.47,NNE,19,6.3,6.3,44,0.00,,---,0.00,VWS V13.01,2013-04-11 22:54:00,
2013-04-11 18:59:00,48.9,29.1,29.47,NE,49,5.4,11.0,46,0.00,,---,0.00,VWS V13.01,2013-04-11 22:59:00,
2013-04-11 19:04:00,48.9,28.5,29.50,North,5,5.8,8.1,45,0.00,,---,0.00,VWS V13.01,2013-04-11 23:04:00,
2013-04-11 19:09:00,48.7,28.4,29.50,NNE,20,0.0,6.3,45,0.00,,---,0.00,VWS V13.01,2013-04-11 23:09:00,
2013-04-11 19:14:00,49.1,28.7,29.50,NNE,19,0.0,3.1,45,0.00,,---,0.00,VWS V13.01,2013-04-11 23:14:00,
2013-04-11 19:19:00,49.3,28.3,29.50,NNE,16,3.6,5.4,44,0.00,,---,0.00,VWS V13.01,2013-04-11 23:19:00,
2013-04-11 19:24:00,49.1,27.6,29.50,NE,34,2.2,8.3,43,0.00,,---,0.00,VWS V13.01,2013-04-11 23:24:00,
2013-04-11 19:29:00,48.7,27.8,29.50,North,0,4.9,6.3,44,0.00,,---,0.00,VWS V13.01,2013-04-11 23:29:00,
2013-04-11 19:34:00,48.7,27.3,29.50,NNW,332,5.4,6.3,43,0.00,,---,0.00,VWS V13.01,2013-04-11 23:34:00,
2013-04-11 19:39:00,48.6,28.2,29.50,NNW,337,7.6,7.6,45,0.00,,---,0.00,VWS V13.01,2013-04-11 23:39:00,
2013-04-11 19:44:00,48.6,27.6,29.50,NNW,335,3.6,7.6,44,0.00,,---,0.00,VWS V13.01,2013-04-11 23:44:00,
2013-04-11 19:49:00,48.7,27.3,29.50,NNW,346,6.3,6.3,43,0.00,,---,0.00,VWS V13.01,2013-04-11 23:49:00,
2013-04-11 19:59:00,48.7,27.3,29.50,North,350,3.1,8.1,43,0.00,,---,0.00,VWS V13.01,2013-04-11 23:59:00,
2013-04-11 20:04:00,48.7,27.8,29.50,North,353,4.0,5.8,44,0.00,,---,0.00,VWS V13.01,2013-04-12 00:04:00,
2013-04-11 20:09:00,48.6,28.2,29.50,NW,313,5.8,9.6,45,0.00,,---,0.00,VWS V13.01,2013-04-12 00:09:00,
2013-04-11 20:14:00,48.6,27.6,29.50,North,350,4.0,6.3,44,0.00,,---,0.00,VWS V13.01,2013-04-12 00:14:00,
2013-04-11 20:19:00,48.4,28.0,29.47,NNW,340,0.0,5.8,45,0.00,,---,0.00,VWS V13.01,2013-04-12 00:19:00,
2013-04-11 20:24:00,48.2,27.3,29.47,ENE,58,8.3,8.3,44,0.00,,---,0.00,VWS V13.01,2013-04-12 00:24:00,
2013-04-11 20:29:00,48.2,27.9,29.47,NNE,30,7.6,8.3,45,0.00,,---,0.00,VWS V13.01,2013-04-12 00:29:00,
2013-04-11 20:34:00,48.0,27.7,29.53,North,3,5.4,8.3,45,0.00,,---,0.00,VWS V13.01,2013-04-12 00:34:00,
2013-04-11 20:39:00,48.0,28.2,29.53,NNE,27,4.0,8.7,46,0.00,,---,0.00,VWS V13.01,2013-04-12 00:39:00,
2013-04-11 20:44:00,48.0,28.8,29.53,NNE,32,3.1,5.4,47,0.00,,---,0.00,VWS V13.01,2013-04-12 00:44:00,
2013-04-11 20:49:00,47.8,28.1,29.53,NNW,346,3.1,7.6,46,0.00,,---,0.00,VWS V13.01,2013-04-12 00:49:00,
2013-04-11 20:54:00,47.8,28.6,29.53,NE,39,5.4,8.1,47,0.00,,---,0.00,VWS V13.01,2013-04-12 00:54:00,
2013-04-11 20:59:00,47.8,28.6,29.53,NE,41,5.8,8.3,47,0.00,,---,0.00,VWS V13.01,2013-04-12 00:59:00,
2013-04-11 21:04:00,47.7,28.4,29.53,North,350,6.3,7.6,47,0.00,,---,0.00,VWS V13.01,2013-04-12 01:04:00,
2013-04-11 21:09:00,47.5,28.8,29.53,NE,35,5.4,8.1,48,0.00,,---,0.00,VWS V13.01,2013-04-12 01:09:00,
2013-04-11 21:14:00,47.5,28.8,29.53,NNW,327,4.0,8.1,48,0.00,,---,0.00,VWS V13.01,2013-04-12 01:14:00,
2013-04-11 21:19:00,47.5,28.8,29.53,North,3,4.0,7.6,48,0.00,,---,0.00,VWS V13.01,2013-04-12 01:19:00,
2013-04-11 21:24:00,47.5,28.8,29.53,NNW,330,3.6,8.1,48,0.00,,---,0.00,VWS V13.01,2013-04-12 01:24:00,
2013-04-11 21:29:00,47.5,28.3,29.53,NNW,331,4.9,5.8,47,0.00,,---,0.00,VWS V13.01,2013-04-12 01:29:00,
2013-04-11 21:34:00,47.5,27.8,29.53,NW,319,4.9,6.3,46,0.00,,---,0.00,VWS V13.01,2013-04-12 01:34:00,
2013-04-11 21:39:00,47.5,27.8,29.53,NNW,344,6.3,6.3,46,0.00,,---,0.00,VWS V13.01,2013-04-12 01:39:00,
2013-04-11 21:44:00,47.3,28.1,29.53,North,9,3.6,6.3,47,0.00,,---,0.00,VWS V13.01,2013-04-12 01:44:00,
2013-04-11 21:49:00,47.3,27.0,29.53,North,8,5.8,8.7,45,0.00,,---,0.00,VWS V13.01,2013-04-12 01:49:00,
2013-04-11 21:54:00,47.1,26.3,29.53,NNE,23,2.7,7.2,44,0.00,,---,0.00,VWS V13.01,2013-04-12 01:54:00,
2013-04-11 21:59:00,47.1,26.3,29.53,NW,307,7.6,9.6,44,0.00,,---,0.00,VWS V13.01,2013-04-12 01:59:00,
2013-04-11 22:04:00,46.9,26.7,29.53,NE,38,5.8,8.1,45,0.00,,---,0.00,VWS V13.01,2013-04-12 02:04:00,
2013-04-11 22:09:00,46.9,25.6,29.53,NNW,330,4.9,7.6,43,0.00,,---,0.00,VWS V13.01,2013-04-12 02:09:00,
2013-04-11 22:14:00,46.9,25.6,29.53,North,2,7.6,7.6,43,0.00,,---,0.00,VWS V13.01,2013-04-12 02:14:00,
2013-04-11 22:19:00,46.8,24.9,29.53,NNW,342,6.3,8.3,42,0.00,,---,0.00,VWS V13.01,2013-04-12 02:19:00,
2013-04-11 22:24:00,46.8,24.3,29.53,North,353,3.1,6.3,41,0.00,,---,0.00,VWS V13.01,2013-04-12 02:24:00,
2013-04-11 22:34:00,46.6,23.6,29.53,NNE,18,3.6,10.5,40,0.00,,---,0.00,VWS V13.01,2013-04-12 02:34:00,
2013-04-11 22:39:00,46.8,23.7,29.53,North,7,3.6,6.3,40,0.00,,---,0.00,VWS V13.01,2013-04-12 02:39:00,
2013-04-11 22:44:00,46.9,23.9,29.53,North,349,0.0,5.4,40,0.00,,---,0.00,VWS V13.01,2013-04-12 02:44:00,
2013-04-11 22:49:00,46.9,23.3,29.53,NNE,12,4.9,6.3,39,0.00,,---,0.00,VWS V13.01,2013-04-12 02:49:00,
2013-04-11 22:54:00,46.9,23.3,29.53,NW,323,3.6,5.8,39,0.00,,---,0.00,VWS V13.01,2013-04-12 02:54:00,
2013-04-11 22:59:00,46.9,23.3,29.53,North,2,2.7,6.7,39,0.00,,---,0.00,VWS V13.01,2013-04-12 02:59:00,
2013-04-11 23:04:00,46.8,22.5,29.53,North,350,3.6,7.6,38,0.00,,---,0.00,VWS V13.01,2013-04-12 03:04:00,
2013-04-11 23:14:00,46.8,21.2,29.53,NNW,329,4.0,10.5,36,0.00,,---,0.00,VWS V13.01,2013-04-12 03:14:00,
2013-04-11 23:19:00,46.9,22.0,29.53,NW,323,0.0,6.3,37,0.00,,---,0.00,VWS V13.01,2013-04-12 03:19:00,
2013-04-11 23:24:00,47.1,22.2,29.53,NNW,341,2.7,5.8,37,0.00,,---,0.00,VWS V13.01,2013-04-12 03:24:00,
2013-04-11 23:29:00,46.8,21.9,29.53,NW,314,3.1,6.3,37,0.00,,---,0.00,VWS V13.01,2013-04-12 03:29:00,
2013-04-11 23:34:00,46.8,21.2,29.53,WNW,302,5.8,7.6,36,0.00,,---,0.00,VWS V13.01,2013-04-12 03:34:00,
2013-04-11 23:39:00,46.8,20.6,29.53,NNW,327,6.3,8.1,35,0.00,,---,0.00,VWS V13.01,2013-04-12 03:39:00,
2013-04-11 23:44:00,46.8,19.2,29.53,NW,325,8.3,8.7,33,0.00,,---,0.00,VWS V13.01,2013-04-12 03:44:00,
2013-04-11 23:49:00,46.8,18.5,29.53,NW,316,0.0,10.1,32,0.00,,---,0.00,VWS V13.01,2013-04-12 03:49:00,
2013-04-11 23:54:00,46.8,17.7,29.53,NNW,344,4.0,10.1,31,0.00,,---,0.00,VWS V13.01,2013-04-12 03:54:00,
2013-04-11 23:59:00,46.8,17.0,29.53,NW,318,3.6,7.6,30,0.00,,---,0.00,VWS V13.01,2013-04-12 03:59:00,